Time;durP1;ratioP1;P1;durP2;ratioP2;P2;SDS_P1;SDS_P2;PMS_P1;PMS_P2;Temp;Humidity;BMP_temperature;BMP_pressure;BME280_temperature;BME280_humidity;BME280_pressure;Samples;Min_cycle;Max_cycle;Signal;HPM_P1;HPM_P2
2023/05/28 00:00:26;;;;;;;8.77;6.33;;;;;;;10.66;100.00;102245.50;4991627;28;21205;-47
2023/05/28 00:02:56;;;;;;;10.40;6.70;;;;;;;10.59;100.00;102241.81;4991884;28;20474;-45
2023/05/28 00:05:24;;;;;;;12.20;6.83;;;;;;;10.53;100.00;102248.63;4991911;28;20545;-47
2023/05/28 00:07:52;;;;;;;7.20;5.70;;;;;;;10.47;100.00;102257.25;4992210;28;20464;-48
2023/05/28 00:10:21;;;;;;;12.03;6.90;;;;;;;10.40;100.00;102257.03;4991643;28;20485;-47
2023/05/28 00:12:48;;;;;;;9.33;6.30;;;;;;;10.36;100.00;102258.34;4991948;28;20439;-46
2023/05/28 00:15:16;;;;;;;13.20;6.93;;;;;;;10.37;100.00;102265.34;4995419;28;20465;-47
2023/05/28 00:17:44;;;;;;;12.80;8.70;;;;;;;10.37;100.00;102269.84;4995793;28;20438;-48
2023/05/28 00:20:12;;;;;;;14.73;7.40;;;;;;;10.39;100.00;102271.38;4995218;28;20458;-45
2023/05/28 00:22:40;;;;;;;12.90;7.77;;;;;;;10.45;100.00;102272.59;4995369;28;20478;-44
2023/05/28 00:25:10;;;;;;;11.17;7.63;;;;;;;10.47;100.00;102271.44;4996079;28;20453;-44
2023/05/28 00:27:40;;;;;;;11.80;7.53;;;;;;;10.51;100.00;102269.28;4997937;28;20517;-44
2023/05/28 00:30:08;;;;;;;9.80;7.70;;;;;;;10.52;100.00;102268.28;5006501;28;20457;-42
2023/05/28 00:32:35;;;;;;;11.73;7.30;;;;;;;10.54;100.00;102261.78;4995138;28;20438;-42
2023/05/28 00:35:04;;;;;;;8.80;7.70;;;;;;;10.57;100.00;102265.97;4995675;28;20457;-45
2023/05/28 00:37:31;;;;;;;16.90;7.57;;;;;;;10.58;100.00;102259.63;4995721;28;20967;-44
2023/05/28 00:39:59;;;;;;;11.40;7.17;;;;;;;10.64;100.00;102250.16;4994885;28;21002;-42
2023/05/28 00:42:27;;;;;;;14.77;8.03;;;;;;;10.64;100.00;102255.47;4995127;28;20461;-44
2023/05/28 00:44:56;;;;;;;10.07;7.50;;;;;;;10.65;100.00;102262.50;4995392;28;20461;-42
2023/05/28 00:47:24;;;;;;;11.40;7.70;;;;;;;10.59;100.00;102260.47;4995576;28;20492;-44
2023/05/28 00:49:54;;;;;;;10.13;7.63;;;;;;;10.56;100.00;102258.97;4994687;28;21010;-44
2023/05/28 00:52:22;;;;;;;8.63;6.80;;;;;;;10.55;100.00;102260.78;4994659;28;20430;-45
2023/05/28 00:54:51;;;;;;;7.87;6.87;;;;;;;10.57;100.00;102252.66;4992935;28;20488;-42
2023/05/28 00:57:21;;;;;;;11.17;7.10;;;;;;;10.55;100.00;102247.44;4995027;28;20582;-43
2023/05/28 00:59:49;;;;;;;11.83;7.70;;;;;;;10.54;100.00;102255.63;4994704;28;20465;-43
2023/05/28 01:02:18;;;;;;;10.40;7.30;;;;;;;10.56;100.00;102250.97;4995045;28;20437;-42
2023/05/28 01:04:46;;;;;;;9.60;7.73;;;;;;;10.57;100.00;102262.47;4994876;28;20556;-45
2023/05/28 01:07:14;;;;;;;9.60;7.30;;;;;;;10.52;100.00;102265.59;4994445;28;20803;-45
2023/05/28 01:09:42;;;;;;;13.33;7.27;;;;;;;10.56;100.00;102264.31;4994537;28;20464;-46
2023/05/28 01:12:10;;;;;;;11.27;7.80;;;;;;;10.55;100.00;102262.63;4994420;28;20449;-46
2023/05/28 01:14:38;;;;;;;13.00;7.30;;;;;;;10.54;100.00;102259.09;4994817;28;20490;-46
2023/05/28 01:17:06;;;;;;;11.60;7.50;;;;;;;10.59;100.00;102252.47;4994663;28;20473;-45
2023/05/28 01:19:35;;;;;;;10.03;7.17;;;;;;;10.63;100.00;102251.16;4994642;28;20466;-48
2023/05/28 01:22:06;;;;;;;10.70;6.70;;;;;;;10.69;100.00;102248.69;4994466;28;20485;-44
2023/05/28 01:24:37;;;;;;;11.87;7.73;;;;;;;10.73;100.00;102252.69;4994108;28;20995;-44
2023/05/28 01:27:05;;;;;;;17.23;6.43;;;;;;;10.73;100.00;102259.84;4994987;28;20505;-44
2023/05/28 01:29:33;;;;;;;13.73;7.77;;;;;;;10.77;100.00;102251.38;5006138;28;21047;-44
2023/05/28 01:32:01;;;;;;;10.50;7.10;;;;;;;10.83;100.00;102256.09;4994320;28;20489;-44
2023/05/28 01:34:29;;;;;;;10.93;7.17;;;;;;;10.85;100.00;102253.22;4994754;28;20466;-44
2023/05/28 01:36:59;;;;;;;11.27;7.43;;;;;;;10.90;100.00;102251.75;4994182;28;20868;-44
2023/05/28 01:39:31;;;;;;;10.53;6.83;;;;;;;10.97;100.00;102243.94;4993965;28;20804;-44
2023/05/28 01:42:01;;;;;;;8.67;6.80;;;;;;;10.99;100.00;102244.63;4994115;28;20430;-43
2023/05/28 01:44:30;;;;;;;17.73;7.93;;;;;;;11.04;100.00;102239.63;4994108;28;20482;-45
2023/05/28 01:46:58;;;;;;;10.97;7.17;;;;;;;11.03;100.00;102246.78;4994215;28;21001;-45
2023/05/28 01:49:27;;;;;;;10.77;7.67;;;;;;;11.05;100.00;102236.78;4993411;28;20530;-44
2023/05/28 01:51:57;;;;;;;10.87;7.47;;;;;;;11.07;100.00;102228.63;4994043;28;20508;-44
2023/05/28 01:54:24;;;;;;;10.00;7.70;;;;;;;11.08;100.00;102235.59;4993969;28;20442;-44
2023/05/28 01:56:52;;;;;;;9.83;7.13;;;;;;;11.08;100.00;102227.59;4994090;28;20920;-43
2023/05/28 01:59:21;;;;;;;14.73;7.60;;;;;;;11.01;100.00;102229.28;4993647;28;20440;-44
2023/05/28 02:01:49;;;;;;;9.40;7.63;;;;;;;10.97;100.00;102231.44;4993914;28;20509;-45
2023/05/28 02:04:17;;;;;;;10.40;7.67;;;;;;;10.95;100.00;102235.25;4993645;28;20502;-44
2023/05/28 02:06:47;;;;;;;8.50;7.03;;;;;;;10.94;100.00;102233.59;4993994;28;20800;-46
2023/05/28 02:09:14;;;;;;;10.57;7.53;;;;;;;10.95;100.00;102236.09;4993706;28;20434;-46
2023/05/28 02:11:42;;;;;;;10.83;7.73;;;;;;;11.03;100.00;102222.78;4993600;28;20437;-42
2023/05/28 02:14:14;;;;;;;10.03;7.40;;;;;;;11.07;100.00;102225.94;4993713;28;20868;-42
2023/05/28 02:16:47;;;;;;;9.50;6.70;;;;;;;11.10;100.00;102233.63;4993407;28;20532;-46
2023/05/28 02:19:16;;;;;;;8.27;6.87;;;;;;;11.05;100.00;102217.28;4993116;28;20940;-44
2023/05/28 02:21:43;;;;;;;9.57;7.10;;;;;;;11.04;100.00;102228.94;4992778;28;20434;-49
2023/05/28 02:24:11;;;;;;;12.37;7.80;;;;;;;11.07;100.00;102223.28;4993217;28;21025;-47
2023/05/28 02:26:39;;;;;;;10.53;7.13;;;;;;;11.08;100.00;102227.59;4993453;28;20434;-43
2023/05/28 02:29:06;;;;;;;10.63;7.60;;;;;;;11.07;100.00;102223.28;5004863;28;20473;-42
2023/05/28 02:31:34;;;;;;;7.70;6.90;;;;;;;11.06;100.00;102218.94;4994382;28;20438;-45
2023/05/28 02:34:03;;;;;;;11.60;7.60;;;;;;;11.03;100.00;102216.59;4993332;28;20915;-43
2023/05/28 02:36:32;;;;;;;12.60;7.90;;;;;;;11.01;100.00;102216.78;4993312;28;20433;-43
2023/05/28 02:39:00;;;;;;;11.00;7.53;;;;;;;11.01;100.00;102219.44;4982151;28;20520;-43
2023/05/28 02:41:28;;;;;;;9.60;6.90;;;;;;;11.00;100.00;102223.09;4992756;28;20501;-42
2023/05/28 02:43:56;;;;;;;9.30;7.30;;;;;;;11.01;100.00;102223.94;4992794;28;21002;-43
2023/05/28 02:46:24;;;;;;;10.43;7.57;;;;;;;10.99;100.00;102225.94;4992958;28;20462;-42
2023/05/28 02:48:51;;;;;;;12.60;7.13;;;;;;;10.98;100.00;102237.59;4992791;28;20476;-42
2023/05/28 02:51:21;;;;;;;11.10;7.40;;;;;;;10.98;100.00;102237.59;4992281;28;20470;-42
2023/05/28 02:53:48;;;;;;;8.67;7.77;;;;;;;10.99;100.00;102234.75;4992797;28;20517;-43
2023/05/28 02:56:16;;;;;;;10.10;8.20;;;;;;;11.01;100.00;102231.94;4992730;28;20894;-44
2023/05/28 02:58:44;;;;;;;12.10;7.00;;;;;;;11.00;100.00;102231.09;4992964;28;20440;-43
2023/05/28 03:01:11;;;;;;;10.07;8.43;;;;;;;11.04;100.00;102231.63;4992106;28;20549;-43
2023/05/28 03:03:39;;;;;;;12.40;8.13;;;;;;;11.07;100.00;102233.97;4992817;28;20445;-42
2023/05/28 03:06:07;;;;;;;12.43;9.17;;;;;;;11.01;100.00;102238.13;4989332;28;20548;-43
2023/05/28 03:08:36;;;;;;;14.20;8.30;;;;;;;11.01;100.00;102242.63;4993001;28;20952;-44
2023/05/28 03:11:04;;;;;;;13.07;7.87;;;;;;;10.97;100.00;102254.59;4992194;28;20462;-44
2023/05/28 03:13:32;;;;;;;9.47;8.03;;;;;;;11.00;100.00;102249.78;4992411;28;20522;-43
2023/05/28 03:15:59;;;;;;;12.43;8.00;;;;;;;10.91;100.00;102244.59;4992308;28;20493;-42
2023/05/28 03:18:27;;;;;;;10.33;8.30;;;;;;;10.91;100.00;102253.44;4991835;28;20431;-43
2023/05/28 03:20:55;;;;;;;12.73;8.33;;;;;;;10.94;100.00;102246.94;4991986;28;20489;-45
2023/05/28 03:23:23;;;;;;;10.83;8.30;;;;;;;10.92;100.00;102244.44;4991854;28;20442;-45
2023/05/28 03:25:51;;;;;;;11.30;8.20;;;;;;;10.88;100.00;102243.06;4992400;28;20482;-42
2023/05/28 03:28:20;;;;;;;19.00;10.00;;;;;;;10.76;100.00;102249.72;5001665;28;20457;-46
2023/05/28 03:30:48;;;;;;;16.20;10.00;;;;;;;10.80;100.00;102255.56;4993928;28;20835;-42
2023/05/28 03:33:15;;;;;;;11.03;8.60;;;;;;;10.79;100.00;102251.22;4991471;28;20440;-42
2023/05/28 03:35:43;;;;;;;12.93;9.53;;;;;;;10.71;100.00;102260.03;4991863;28;20485;-42
2023/05/28 03:38:11;;;;;;;11.40;8.23;;;;;;;10.68;100.00;102270.19;4992121;28;20454;-42
2023/05/28 03:40:40;;;;;;;16.63;9.07;;;;;;;10.60;100.00;102276.34;4991928;28;20845;-43
2023/05/28 03:43:09;;;;;;;12.40;9.27;;;;;;;10.68;100.00;102262.19;4992025;28;20434;-44
2023/05/28 03:45:37;;;;;;;18.73;10.03;;;;;;;10.72;100.00;102260.88;4992122;28;21270;-43
2023/05/28 03:48:06;;;;;;;13.90;8.90;;;;;;;10.75;100.00;102263.22;4991244;28;20500;-42
2023/05/28 03:50:33;;;;;;;15.33;8.97;;;;;;;10.81;100.00;102259.91;4991592;28;20470;-43
2023/05/28 03:53:01;;;;;;;11.17;9.60;;;;;;;10.83;100.00;102264.09;4997644;28;20521;-44
2023/05/28 03:55:29;;;;;;;13.20;8.43;;;;;;;10.88;100.00;102260.91;5000424;28;20537;-43
2023/05/28 03:57:57;;;;;;;11.80;8.57;;;;;;;10.97;100.00;102250.13;4991924;28;20430;-46
2023/05/28 04:00:26;;;;;;;16.13;9.07;;;;;;;10.92;100.00;102249.78;4991398;28;20890;-44
2023/05/28 04:02:54;;;;;;;17.47;8.80;;;;;;;10.92;100.00;102249.78;4990856;28;20461;-43
2023/05/28 04:05:22;;;;;;;13.33;8.83;;;;;;;10.92;100.00;102243.59;4991657;28;20481;-43
2023/05/28 04:07:50;;;;;;;13.23;9.23;;;;;;;11.01;100.00;102247.97;4991756;28;20803;-43
2023/05/28 04:10:18;;;;;;;9.53;8.47;;;;;;;10.99;100.00;102234.75;4991638;28;20832;-45
2023/05/28 04:12:45;;;;;;;10.80;8.40;;;;;;;11.00;100.00;102243.59;4991693;28;20526;-45
2023/05/28 04:15:13;;;;;;;9.57;7.33;;;;;;;10.99;100.00;102233.94;4991453;28;20457;-42
2023/05/28 04:17:42;;;;;;;9.93;7.40;;;;;;;10.94;100.00;102233.59;4990618;28;20477;-45
2023/05/28 04:20:12;;;;;;;9.50;8.27;;;;;;;11.01;100.00;102237.28;4991323;28;20465;-44
2023/05/28 04:22:39;;;;;;;15.37;7.50;;;;;;;10.91;100.00;102250.75;4991351;28;20458;-46
2023/05/28 04:25:08;;;;;;;10.10;7.70;;;;;;;10.82;100.00;102265.06;4991412;28;21237;-43
2023/05/28 04:27:36;;;;;;;10.27;9.17;;;;;;;10.85;100.00;102255.91;4997112;28;20432;-43
2023/05/28 04:30:04;;;;;;;12.20;8.30;;;;;;;10.86;100.00;102254.91;5003819;28;20898;-42
2023/05/28 04:32:32;;;;;;;15.70;9.47;;;;;;;10.86;100.00;102254.91;4982050;28;20896;-44
2023/05/28 04:35:03;;;;;;;15.73;8.30;;;;;;;10.88;100.00;102255.59;4991204;28;20461;-44
2023/05/28 04:37:33;;;;;;;12.43;8.43;;;;;;;10.88;100.00;102250.25;4991800;28;20470;-44
2023/05/28 04:40:00;;;;;;;10.30;8.57;;;;;;;10.99;100.00;102241.97;4990923;28;20470;-42
2023/05/28 04:42:28;;;;;;;13.00;8.27;;;;;;;11.08;100.00;102244.47;5001811;28;20468;-47
2023/05/28 04:44:58;;;;;;;13.60;8.07;;;;;;;11.19;100.00;102247.84;4999690;28;20462;-44
2023/05/28 04:47:25;;;;;;;9.00;8.07;;;;;;;11.21;100.00;102256.50;4990945;28;20477;-44
2023/05/28 04:49:53;;;;;;;8.80;7.90;;;;;;;11.21;100.00;102243.16;4991204;28;20488;-43
2023/05/28 04:52:22;;;;;;;11.57;8.50;;;;;;;11.32;100.00;102251.69;4981215;28;20462;-46
2023/05/28 04:54:50;;;;;;;14.93;9.10;;;;;;;11.49;100.00;102249.88;4991163;28;20548;-46
2023/05/28 04:57:17;;;;;;;17.33;8.90;;;;;;;11.61;100.00;102248.56;4991512;28;20492;-43
2023/05/28 04:59:46;;;;;;;10.60;8.20;;;;;;;11.78;100.00;102249.41;4988498;28;20434;-44
2023/05/28 05:02:16;;;;;;;12.50;8.47;;;;;;;12.14;100.00;102248.03;4993491;28;20541;-46
2023/05/28 05:04:44;;;;;;;9.97;8.77;;;;;;;12.42;100.00;102251.16;4986021;28;21100;-44
2023/05/28 05:07:12;;;;;;;12.30;7.97;;;;;;;12.75;100.00;102253.50;4994867;28;20470;-43
2023/05/28 05:09:42;;;;;;;10.70;8.37;;;;;;;13.78;100.00;102246.84;4994622;28;20426;-44
2023/05/28 05:12:10;;;;;;;10.33;7.90;;;;;;;14.62;100.00;102244.81;4994263;28;20458;-46
2023/05/28 05:14:38;;;;;;;13.23;8.30;;;;;;;15.23;100.00;102238.13;4994029;28;20481;-44
2023/05/28 05:17:08;;;;;;;8.93;7.40;;;;;;;16.63;100.00;102243.41;4994539;28;20508;-46
2023/05/28 05:19:36;;;;;;;9.60;7.17;;;;;;;17.11;100.00;102225.34;4994437;28;20438;-42
2023/05/28 05:22:04;;;;;;;8.63;7.07;;;;;;;17.02;99.94;102232.75;4993681;28;20600;-43
2023/05/28 05:24:32;;;;;;;10.67;7.83;;;;;;;17.22;100.00;102230.13;4994133;28;21017;-44
2023/05/28 05:27:02;;;;;;;9.20;8.30;;;;;;;17.88;100.00;102228.34;4983738;28;20871;-44
2023/05/28 05:29:30;;;;;;;11.83;7.57;;;;;;;18.88;99.24;102241.38;5002082;28;20465;-43
2023/05/28 05:31:57;;;;;;;14.10;7.83;;;;;;;19.65;76.85;102243.84;4993876;28;20831;-43
2023/05/28 05:34:26;;;;;;;7.30;6.70;;;;;;;20.24;78.55;102243.34;4994006;28;20512;-43
2023/05/28 05:36:53;;;;;;;15.67;8.17;;;;;;;21.16;75.06;102242.25;4994401;28;20438;-43
2023/05/28 05:39:21;;;;;;;10.67;7.10;;;;;;;21.30;64.18;102232.03;4994903;28;20857;-46
2023/05/28 05:41:49;;;;;;;12.07;7.70;;;;;;;22.07;68.47;102233.72;4993464;28;20469;-42
2023/05/28 05:44:18;;;;;;;9.17;7.17;;;;;;;22.64;59.44;102233.88;4993760;28;20464;-43
2023/05/28 05:46:46;;;;;;;13.77;7.17;;;;;;;21.86;60.78;102237.81;4993692;28;20500;-42
2023/05/28 05:49:14;;;;;;;7.20;6.27;;;;;;;21.47;63.23;102239.28;4993836;28;20434;-42
2023/05/28 05:51:42;;;;;;;9.70;7.00;;;;;;;21.24;63.11;102246.53;4993420;28;20493;-42
2023/05/28 05:54:10;;;;;;;11.90;7.07;;;;;;;21.52;61.26;102246.75;4993857;28;20436;-44
2023/05/28 05:56:38;;;;;;;7.33;6.53;;;;;;;22.44;59.77;102245.97;4993848;28;20429;-42
2023/05/28 05:59:06;;;;;;;7.83;6.43;;;;;;;22.42;58.17;102237.25;4993476;28;20524;-46
2023/05/28 06:01:35;;;;;;;10.60;6.77;;;;;;;23.09;57.33;102241.06;4993098;28;20468;-41
2023/05/28 06:04:06;;;;;;;7.77;7.00;;;;;;;23.29;54.73;102232.47;4993707;28;20457;-43
2023/05/28 06:06:36;;;;;;;9.63;6.93;;;;;;;23.64;53.31;102237.72;4994029;28;20461;-42
2023/05/28 06:09:04;;;;;;;7.63;5.93;;;;;;;24.34;53.24;102231.75;4993760;28;20480;-43
2023/05/28 06:11:32;;;;;;;10.20;6.40;;;;;;;24.94;53.54;102229.78;4992627;28;20813;-42
2023/05/28 06:13:59;;;;;;;9.33;7.10;;;;;;;25.36;54.10;102221.72;4993666;28;20434;-42
2023/05/28 06:16:28;;;;;;;7.43;6.60;;;;;;;25.70;47.20;102234.09;4993140;28;20971;-42
2023/05/28 06:18:57;;;;;;;8.23;7.10;;;;;;;24.95;47.37;102236.88;4993564;28;20445;-43
2023/05/28 06:21:25;;;;;;;10.97;7.57;;;;;;;25.98;46.67;102229.38;4992887;28;20536;-43
2023/05/28 06:23:53;;;;;;;7.90;6.53;;;;;;;26.82;49.43;102216.44;4993472;28;20434;-41
2023/05/28 06:26:22;;;;;;;9.80;6.83;;;;;;;26.78;50.47;102213.38;4993167;28;20971;-45
2023/05/28 06:28:49;;;;;;;9.57;6.93;;;;;;;26.88;44.50;102218.91;4998678;28;20487;-42
2023/05/28 06:31:17;;;;;;;7.20;6.07;;;;;;;26.22;47.05;102220.50;5001892;28;20465;-45
2023/05/28 06:33:46;;;;;;;8.37;5.77;;;;;;;25.91;45.34;102220.56;4993137;28;20194;-43
2023/05/28 06:36:15;;;;;;;6.30;5.30;;;;;;;26.09;42.92;102223.72;4993090;28;20512;-41
2023/05/28 06:38:43;;;;;;;9.83;6.63;;;;;;;26.44;46.29;102217.63;4993356;28;20453;-42
2023/05/28 06:41:11;;;;;;;13.10;6.80;;;;;;;27.09;46.13;102222.50;4992661;28;21189;-43
2023/05/28 06:43:39;;;;;;;8.73;6.50;;;;;;;26.26;46.13;102215.34;4992566;28;20524;-44
2023/05/28 06:46:07;;;;;;;11.43;7.20;;;;;;;26.93;45.18;102207.16;4992798;28;21042;-42
2023/05/28 06:48:35;;;;;;;9.30;7.17;;;;;;;27.10;40.58;102215.94;4993202;28;20443;-47
2023/05/28 06:51:03;;;;;;;8.13;6.23;;;;;;;25.45;43.89;102219.38;4992683;28;20540;-42
2023/05/28 06:53:32;;;;;;;9.03;7.10;;;;;;;25.46;46.14;102230.03;4992757;28;20943;-45
2023/05/28 06:55:59;;;;;;;11.00;7.37;;;;;;;25.02;43.66;102231.22;4992650;28;20552;-42
2023/05/28 06:58:27;;;;;;;9.57;7.43;;;;;;;24.83;47.01;102236.19;4990301;28;20440;-44
2023/05/28 07:00:55;;;;;;;7.93;7.00;;;;;;;25.35;44.76;102236.50;4992118;28;20539;-42
2023/05/28 07:03:22;;;;;;;10.73;7.70;;;;;;;25.36;44.49;102229.13;4992860;28;20796;-42
2023/05/28 07:05:50;;;;;;;8.00;7.20;;;;;;;24.66;45.67;102235.44;4992781;28;20540;-47
2023/05/28 07:08:18;;;;;;;12.17;7.33;;;;;;;24.53;45.84;102236.63;4992724;28;20477;-45
2023/05/28 07:10:47;;;;;;;9.87;7.20;;;;;;;24.71;47.60;102240.94;4992397;28;20851;-42
2023/05/28 07:13:15;;;;;;;9.20;6.47;;;;;;;25.32;46.72;102231.53;4992704;28;20468;-45
2023/05/28 07:15:42;;;;;;;10.03;6.97;;;;;;;26.10;45.68;102238.22;4992577;28;20469;-43
2023/05/28 07:18:10;;;;;;;8.53;7.50;;;;;;;26.74;46.48;102233.34;4992651;28;20449;-44
2023/05/28 07:20:38;;;;;;;10.57;6.67;;;;;;;26.94;44.38;102228.78;4992286;28;20469;-42
2023/05/28 07:23:06;;;;;;;9.20;6.77;;;;;;;27.18;44.82;102236.50;4991793;28;20436;-43
2023/05/28 07:25:34;;;;;;;6.83;5.90;;;;;;;27.77;43.10;102231.34;4992813;28;20504;-43
2023/05/28 07:28:03;;;;;;;7.47;6.47;;;;;;;27.85;41.56;102225.31;5001177;28;20989;-43
2023/05/28 07:30:30;;;;;;;8.87;6.80;;;;;;;26.96;42.24;102236.75;5010970;28;20221;-42
2023/05/28 07:32:58;;;;;;;9.97;7.23;;;;;;;25.90;40.90;102230.69;5011942;28;20436;-42
2023/05/28 07:35:26;;;;;;;7.30;6.60;;;;;;;24.81;41.61;102240.28;5048720;22;20506;-42
2023/05/28 07:37:55;;;;;;;6.97;6.30;;;;;;;24.95;44.74;102242.34;5032065;28;20518;-42
2023/05/28 07:40:22;;;;;;;8.73;5.90;;;;;;;24.40;44.39;102247.91;5031621;28;20455;-44
2023/05/28 07:42:50;;;;;;;8.67;5.90;;;;;;;24.10;45.04;102252.91;5031718;28;20486;-42
2023/05/28 07:45:19;;;;;;;12.83;6.70;;;;;;;23.42;47.89;102253.97;5031786;28;20459;-42
2023/05/28 07:47:47;;;;;;;10.30;7.30;;;;;;;23.88;46.93;102252.84;5031598;28;20902;-43
2023/05/28 07:50:15;;;;;;;8.83;6.87;;;;;;;24.22;46.66;102250.94;5030693;28;20427;-42
2023/05/28 07:52:43;;;;;;;10.53;7.13;;;;;;;24.79;45.41;102244.03;5031708;28;20931;-44
2023/05/28 07:55:11;;;;;;;7.47;5.83;;;;;;;24.97;45.12;102234.72;5031508;28;20456;-42
2023/05/28 07:57:39;;;;;;;10.07;6.30;;;;;;;24.66;45.33;102244.44;5031304;28;20459;-48
2023/05/28 08:00:15;;;;;;;7.87;7.07;;;;;;;24.03;46.27;102246.78;5030753;28;20445;-42
2023/05/28 08:02:44;;;;;;;7.90;7.10;;;;;;;22.72;48.58;102241.69;5031250;28;20526;-44
2023/05/28 08:05:16;;;;;;;8.00;6.23;;;;;;;22.27;50.02;102258.66;5031715;28;20447;-44
2023/05/28 08:07:44;;;;;;;10.30;6.73;;;;;;;22.45;50.04;102246.81;5036717;28;20474;-42
2023/05/28 08:10:12;;;;;;;10.77;6.40;;;;;;;22.45;49.66;102242.19;5028446;28;22296;-42
2023/05/28 08:12:40;;;;;;;10.30;6.90;;;;;;;22.34;51.78;102250.38;5029478;28;20565;-42
2023/05/28 08:15:09;;;;;;;9.20;7.63;;;;;;;22.22;51.46;102252.28;5038901;28;20534;-43
2023/05/28 08:17:37;;;;;;;8.17;6.37;;;;;;;21.88;52.03;102241.16;5050062;28;20987;-42
2023/05/28 08:20:09;;;;;;;10.30;6.77;;;;;;;21.44;54.35;102242.44;5050376;28;21123;-44
2023/05/28 08:22:37;;;;;;;11.13;7.70;;;;;;;21.65;53.97;102241.13;5050895;28;20545;-43
2023/05/28 08:25:05;;;;;;;8.03;6.80;;;;;;;21.40;55.81;102244.00;5045409;28;20900;-42
2023/05/28 08:27:35;;;;;;;8.50;6.80;;;;;;;20.96;57.48;102249.81;5036251;28;20474;-42
2023/05/28 08:30:03;;;;;;;10.53;7.50;;;;;;;21.04;60.78;102238.66;5043137;28;20438;-42
2023/05/28 08:32:31;;;;;;;9.13;7.43;;;;;;;20.95;60.15;102235.44;5050503;28;20441;-42
2023/05/28 08:34:59;;;;;;;10.80;7.60;;;;;;;21.36;59.48;102236.53;5051340;28;20998;-42
2023/05/28 08:37:28;;;;;;;8.53;7.50;;;;;;;21.55;58.24;102234.59;5054384;28;20426;-43
2023/05/28 08:39:56;;;;;;;7.43;6.47;;;;;;;21.80;57.93;102238.75;5034999;28;20514;-43
2023/05/28 08:42:23;;;;;;;11.37;7.40;;;;;;;21.52;58.62;102249.44;5033578;28;20475;-42
2023/05/28 08:44:51;;;;;;;10.67;6.90;;;;;;;21.78;58.37;102242.75;5045983;28;20439;-42
2023/05/28 08:47:19;;;;;;;9.10;7.77;;;;;;;21.97;56.01;102245.19;5054437;28;21054;-43
2023/05/28 08:49:52;;;;;;;8.13;7.33;;;;;;;22.12;56.30;102239.28;5053979;28;20644;-44
2023/05/28 08:52:21;;;;;;;12.20;7.43;;;;;;;21.85;57.15;102246.19;5053227;28;20855;-42
2023/05/28 08:54:51;;;;;;;11.30;6.90;;;;;;;21.11;59.23;102252.16;5052909;28;20912;-42
2023/05/28 08:57:19;;;;;;;7.83;7.00;;;;;;;21.29;57.67;102241.25;5054109;28;20518;-41
2023/05/28 08:59:48;;;;;;;9.97;6.80;;;;;;;20.83;59.54;102241.84;5053897;28;20811;-42
2023/05/28 09:02:16;;;;;;;11.73;7.73;;;;;;;21.03;59.41;102244.31;5052879;28;20546;-42
2023/05/28 09:04:46;;;;;;;16.37;8.27;;;;;;;20.88;64.46;102244.69;5051563;28;20902;-42
2023/05/28 09:07:14;;;;;;;7.90;6.30;;;;;;;20.60;65.20;102239.00;5033750;28;20507;-42
2023/05/28 09:09:42;;;;;;;10.10;7.10;;;;;;;20.33;65.64;102242.03;5033754;28;20455;-44
2023/05/28 09:12:12;;;;;;;8.67;7.13;;;;;;;20.32;66.10;102239.53;5032719;28;20466;-43
2023/05/28 09:14:42;;;;;;;7.60;6.57;;;;;;;20.49;63.44;102232.44;5040498;28;20458;-42
2023/05/28 09:17:13;;;;;;;10.33;7.20;;;;;;;19.92;73.35;102233.66;5053841;28;20426;-41
2023/05/28 09:19:51;;;;;;;7.40;6.23;;;;;;;19.81;72.48;102237.06;5053479;28;20480;-42
2023/05/28 09:22:19;;;;;;;7.63;6.80;;;;;;;20.22;70.35;102229.16;5052692;28;20462;-43
2023/05/28 09:24:49;;;;;;;9.23;6.90;;;;;;;20.39;68.95;102226.75;5053103;28;20546;-45
2023/05/28 09:27:19;;;;;;;7.03;6.40;;;;;;;20.92;64.07;102229.63;5045994;28;20912;-44
2023/05/28 09:29:48;;;;;;;10.03;7.47;;;;;;;20.65;67.59;102234.56;5052689;28;20437;-46
2023/05/28 09:32:19;;;;;;;12.27;6.30;;;;;;;21.03;66.05;102231.56;5052328;28;20493;-43
2023/05/28 09:34:47;;;;;;;9.80;5.70;;;;;;;21.30;63.72;102232.03;5052805;28;20462;-43
2023/05/28 09:37:16;;;;;;;7.30;5.70;;;;;;;21.76;62.90;102225.88;5053340;28;20530;-42
2023/05/28 09:39:43;;;;;;;9.10;6.53;;;;;;;22.03;61.84;102227.09;5053169;28;20910;-44
2023/05/28 09:42:13;;;;;;;9.60;6.40;;;;;;;22.44;59.81;102229.66;5051727;28;20466;-42
2023/05/28 09:44:43;;;;;;;9.43;5.87;;;;;;;22.64;58.33;102226.53;5051619;28;20457;-42
2023/05/28 09:47:15;;;;;;;6.47;5.40;;;;;;;22.96;58.78;102219.63;5052033;28;20956;-43
2023/05/28 09:49:45;;;;;;;7.60;6.43;;;;;;;22.87;60.01;102225.69;5051963;28;20471;-44
2023/05/28 09:52:19;;;;;;;10.47;6.30;;;;;;;22.72;59.04;102223.50;5051095;28;20462;-42
2023/05/28 09:54:51;;;;;;;7.57;5.20;;;;;;;22.53;58.91;102225.50;5052117;28;20454;-45
2023/05/28 09:57:24;;;;;;;6.10;5.20;;;;;;;22.11;58.80;102232.19;5052574;28;20892;-43
2023/05/28 09:59:55;;;;;;;7.80;5.50;;;;;;;22.57;57.93;102218.53;5052787;28;20923;-42
2023/05/28 10:02:33;;;;;;;6.30;5.57;;;;;;;21.64;61.50;102225.03;5051945;28;21041;-45
2023/05/28 10:05:08;;;;;;;8.40;6.90;;;;;;;21.83;59.83;102230.13;5047337;28;20448;-41
2023/05/28 10:07:38;;;;;;;5.07;4.57;;;;;;;22.17;56.26;102227.69;5032005;28;20974;-42
2023/05/28 10:10:08;;;;;;;6.10;5.70;;;;;;;23.14;57.24;102227.59;5031868;28;20470;-42
2023/05/28 10:12:37;;;;;;;6.03;5.00;;;;;;;23.44;55.16;102224.59;5031666;28;20435;-42
2023/05/28 10:15:11;;;;;;;5.50;5.00;;;;;;;22.83;56.65;102225.34;5031104;28;20690;-42
2023/05/28 10:17:39;;;;;;;5.90;5.40;;;;;;;21.87;60.71;102220.44;5048053;28;20424;-42
2023/05/28 10:20:10;;;;;;;5.10;4.80;;;;;;;21.48;56.50;102227.38;5051256;28;20920;-46
2023/05/28 10:22:39;;;;;;;5.40;4.90;;;;;;;21.29;59.39;102220.38;5051875;28;20437;-42
2023/05/28 10:25:08;;;;;;;6.07;4.73;;;;;;;21.45;60.38;102216.97;5052181;28;20812;-42
2023/05/28 10:27:38;;;;;;;5.50;4.90;;;;;;;21.45;59.04;102216.97;5043501;28;20458;-42
2023/05/28 10:30:07;;;;;;;5.40;4.90;;;;;;;21.72;56.81;102220.09;5051466;28;20471;-42
2023/05/28 10:32:41;;;;;;;5.70;5.20;;;;;;;21.95;59.06;102217.41;5051866;28;20855;-45
2023/05/28 10:35:11;;;;;;;5.93;5.43;;;;;;;21.32;60.94;102225.34;5051805;28;20520;-43
2023/05/28 10:37:40;;;;;;;5.07;4.80;;;;;;;21.29;61.26;102219.53;5052423;28;20530;-42
2023/05/28 10:40:09;;;;;;;4.93;4.37;;;;;;;21.29;59.59;102208.69;5051665;28;20477;-43
2023/05/28 10:42:40;;;;;;;5.43;4.97;;;;;;;21.33;60.49;102218.00;5051659;28;20962;-42
2023/05/28 10:45:10;;;;;;;5.50;5.10;;;;;;;21.71;56.01;102218.44;5051529;28;20481;-44
2023/05/28 10:47:41;;;;;;;4.30;4.00;;;;;;;22.05;54.65;102217.66;5052066;28;20949;-44
2023/05/28 10:50:13;;;;;;;8.77;5.30;;;;;;;22.10;55.85;102218.84;5051695;28;20843;-43
2023/05/28 10:53:03;;;;;;;4.83;4.43;;;;;;;22.64;54.74;102209.41;5051850;28;20426;-43
2023/05/28 10:55:47;;;;;;;4.13;3.93;;;;;;;22.54;55.23;102210.03;5050844;28;20534;-44
2023/05/28 10:58:23;;;;;;;6.07;5.13;;;;;;;21.65;57.62;102213.13;5051299;28;20434;-42
2023/05/28 11:00:51;;;;;;;5.30;4.33;;;;;;;21.43;58.50;102213.69;5051092;28;20525;-43
2023/05/28 11:03:40;;;;;;;4.67;4.37;;;;;;;21.06;58.68;102222.13;5051467;28;20470;-43
2023/05/28 11:06:09;;;;;;;4.67;4.30;;;;;;;20.94;56.32;102211.22;5025708;28;20452;-42
2023/05/28 11:08:42;;;;;;;4.10;3.80;;;;;;;21.47;61.60;102219.47;5031676;28;20474;-43
2023/05/28 11:11:12;;;;;;;10.03;4.53;;;;;;;21.71;59.21;102221.16;5030460;28;20470;-42
2023/05/28 11:13:44;;;;;;;5.03;4.23;;;;;;;21.87;57.95;102215.03;5033037;28;20435;-42
2023/05/28 11:16:14;;;;;;;4.67;4.27;;;;;;;22.67;55.76;102206.25;5051611;28;20461;-42
2023/05/28 11:19:05;;;;;;;4.40;4.10;;;;;;;22.25;55.87;102208.31;5049012;28;20497;-42
2023/05/28 11:21:33;;;;;;;4.67;4.37;;;;;;;22.81;53.31;102207.59;5049801;28;20486;-44
2023/05/28 11:24:02;;;;;;;4.30;3.90;;;;;;;23.22;51.56;102206.47;5050551;28;20435;-43